createdAt,value
2017-08-14T00:00:05.102Z,0
2017-08-14T00:01:06.499Z,0
2017-08-14T00:02:07.898Z,0
2017-08-14T00:03:09.298Z,0
2017-08-14T00:04:10.700Z,0
2017-08-14T00:05:12.099Z,0
2017-08-14T00:06:13.500Z,0
2017-08-14T00:07:14.891Z,0
2017-08-14T00:08:16.286Z,0
2017-08-14T00:09:17.695Z,0
2017-08-14T00:10:19.093Z,0
2017-08-14T00:11:20.493Z,0
2017-08-14T00:12:21.891Z,0
2017-08-14T00:13:23.292Z,0
2017-08-14T00:14:24.738Z,0
2017-08-14T00:15:26.138Z,0
2017-08-14T00:16:27.536Z,0
2017-08-14T00:17:28.932Z,0
2017-08-14T00:18:30.329Z,0
2017-08-14T00:19:31.735Z,0
2017-08-14T00:20:33.130Z,0
2017-08-14T00:21:34.527Z,0
2017-08-14T00:22:35.921Z,0
2017-08-14T00:23:37.318Z,0
2017-08-14T00:24:38.717Z,0
2017-08-14T00:25:40.115Z,0
2017-08-14T00:26:41.513Z,0
2017-08-14T00:27:42.911Z,0
2017-08-14T00:28:44.309Z,0
2017-08-14T00:29:45.707Z,0
2017-08-14T00:30:47.101Z,0
2017-08-14T00:31:48.499Z,0
2017-08-14T00:32:49.893Z,0
2017-08-14T00:33:51.292Z,0
2017-08-14T00:34:52.692Z,0
2017-08-14T00:35:54.091Z,0
2017-08-14T00:36:55.484Z,0
2017-08-14T00:37:56.881Z,0
2017-08-14T00:38:58.285Z,0
2017-08-14T00:39:59.683Z,0
2017-08-14T00:41:01.079Z,0
2017-08-14T00:42:02.490Z,0
2017-08-14T00:43:03.887Z,0
2017-08-14T00:44:05.286Z,0
2017-08-14T00:45:06.684Z,0
2017-08-14T00:46:08.076Z,0
2017-08-14T00:47:09.474Z,0
2017-08-14T00:48:10.878Z,0
2017-08-14T00:49:12.276Z,0
2017-08-14T00:50:13.672Z,0
2017-08-14T00:51:15.067Z,0
2017-08-14T00:52:16.464Z,0
2017-08-14T00:53:17.858Z,0
2017-08-14T00:54:19.260Z,0
2017-08-14T00:55:20.656Z,0
2017-08-14T00:56:22.054Z,0
2017-08-14T00:57:23.448Z,0
2017-08-14T00:58:24.843Z,0
2017-08-14T00:59:26.244Z,0
2017-08-14T01:00:27.642Z,0
2017-08-14T01:01:29.047Z,0
2017-08-14T01:02:30.447Z,0
2017-08-14T01:03:31.845Z,0
2017-08-14T01:04:33.244Z,0
2017-08-14T01:05:34.639Z,0
2017-08-14T01:06:36.032Z,0
2017-08-14T01:07:37.430Z,0
2017-08-14T01:08:38.828Z,0
2017-08-14T01:09:40.229Z,0
2017-08-14T01:10:41.631Z,0
2017-08-14T01:11:43.031Z,0
2017-08-14T01:12:44.421Z,0
2017-08-14T01:13:45.821Z,0
2017-08-14T01:14:47.217Z,0
2017-08-14T01:15:48.614Z,0
2017-08-14T01:16:50.011Z,0
2017-08-14T01:17:51.411Z,0
2017-08-14T01:18:52.811Z,0
2017-08-14T01:19:54.208Z,0
2017-08-14T01:20:55.603Z,0
2017-08-14T01:21:57.000Z,0
2017-08-14T01:22:58.402Z,0
2017-08-14T01:23:59.804Z,0
2017-08-14T01:25:01.199Z,0
2017-08-14T01:26:02.596Z,0
2017-08-14T01:27:03.990Z,0
2017-08-14T01:28:05.383Z,0
2017-08-14T01:29:06.782Z,0
2017-08-14T01:30:08.180Z,0
2017-08-14T01:31:09.581Z,0
2017-08-14T01:32:10.977Z,0
2017-08-14T01:33:12.370Z,0
2017-08-14T01:34:13.766Z,0
2017-08-14T01:35:15.167Z,0
2017-08-14T01:36:16.565Z,0
2017-08-14T01:37:17.964Z,0
2017-08-14T01:38:19.369Z,0
2017-08-14T01:39:20.769Z,0
2017-08-14T01:40:22.164Z,0
2017-08-14T01:41:23.560Z,0
2017-08-14T01:42:24.957Z,0
2017-08-14T01:43:26.353Z,0
2017-08-14T01:44:27.753Z,0
2017-08-14T01:45:29.152Z,0
2017-08-14T01:46:30.552Z,0
2017-08-14T01:47:31.944Z,0
2017-08-14T01:48:33.341Z,0
2017-08-14T01:49:34.742Z,0
2017-08-14T01:50:36.141Z,0
2017-08-14T01:51:37.534Z,0
2017-08-14T01:52:38.932Z,0
2017-08-14T01:53:40.335Z,0
2017-08-14T01:54:41.731Z,0
2017-08-14T01:55:43.128Z,0
2017-08-14T01:56:44.524Z,0
2017-08-14T01:57:45.921Z,0
2017-08-14T01:58:47.318Z,0
2017-08-14T01:59:48.720Z,0
2017-08-14T02:00:50.116Z,0
2017-08-14T02:01:51.514Z,0
2017-08-14T02:02:52.906Z,0
2017-08-14T02:03:54.311Z,0
2017-08-14T02:04:55.711Z,0
2017-08-14T02:05:57.110Z,0
2017-08-14T02:06:58.509Z,0
2017-08-14T02:07:59.906Z,0
2017-08-14T02:09:01.305Z,0
2017-08-14T02:10:02.702Z,0
2017-08-14T02:11:04.097Z,0
2017-08-14T02:12:05.494Z,0
2017-08-14T02:13:06.892Z,0
2017-08-14T02:14:08.294Z,0
2017-08-14T02:15:09.696Z,0
2017-08-14T02:16:11.090Z,0
2017-08-14T02:17:12.486Z,0
2017-08-14T02:18:13.884Z,0
2017-08-14T02:19:15.283Z,0
2017-08-14T02:20:16.679Z,0
2017-08-14T02:21:18.077Z,0
2017-08-14T02:22:19.478Z,0
2017-08-14T02:23:20.872Z,0
2017-08-14T02:24:22.272Z,0
2017-08-14T02:25:23.670Z,0
2017-08-14T02:26:25.072Z,0
2017-08-14T02:27:26.469Z,0
2017-08-14T02:28:27.871Z,0
2017-08-14T02:29:29.275Z,0
2017-08-14T02:30:30.670Z,0
2017-08-14T02:31:32.065Z,0
2017-08-14T02:32:33.460Z,0
2017-08-14T02:33:34.859Z,0
2017-08-14T02:34:36.258Z,0
2017-08-14T02:35:37.653Z,0
2017-08-14T02:36:39.067Z,0
2017-08-14T02:37:40.503Z,0
2017-08-14T02:38:41.907Z,0
2017-08-14T02:39:43.302Z,0
2017-08-14T02:40:44.702Z,0
2017-08-14T02:41:46.104Z,0
2017-08-14T02:42:47.503Z,0
2017-08-14T02:43:48.903Z,0
2017-08-14T02:44:50.300Z,0
2017-08-14T02:45:51.698Z,0
2017-08-14T02:46:53.094Z,0
2017-08-14T02:47:54.492Z,0
2017-08-14T02:48:55.892Z,0
2017-08-14T02:49:57.290Z,0
2017-08-14T02:50:58.694Z,0
2017-08-14T02:52:00.085Z,0
2017-08-14T02:53:01.478Z,0
2017-08-14T02:54:02.876Z,0
2017-08-14T02:55:04.273Z,0
2017-08-14T02:56:05.697Z,0
2017-08-14T02:57:07.095Z,0
2017-08-14T02:58:08.496Z,0
2017-08-14T02:59:09.889Z,0
2017-08-14T03:00:11.286Z,0
2017-08-14T03:01:12.683Z,0
2017-08-14T03:02:14.076Z,0
2017-08-14T03:03:15.478Z,0
2017-08-14T03:04:16.884Z,0
2017-08-14T03:05:18.279Z,0
2017-08-14T03:06:19.677Z,0
2017-08-14T03:07:21.073Z,0
2017-08-14T03:08:22.468Z,0
2017-08-14T03:09:23.866Z,0
2017-08-14T03:10:25.263Z,0
2017-08-14T03:11:26.661Z,0
2017-08-14T03:12:28.060Z,0
2017-08-14T03:13:29.465Z,0
2017-08-14T03:14:30.858Z,0
2017-08-14T03:15:32.254Z,0
2017-08-14T03:16:33.652Z,0
2017-08-14T03:17:35.051Z,0
2017-08-14T03:18:36.452Z,0
2017-08-14T03:19:37.847Z,0
2017-08-14T03:20:39.245Z,0
2017-08-14T03:21:40.639Z,0
2017-08-14T03:22:42.036Z,0
2017-08-14T03:23:43.434Z,0
2017-08-14T03:24:44.835Z,0
2017-08-14T03:25:46.235Z,0
2017-08-14T03:26:47.633Z,0
2017-08-14T03:27:49.027Z,0
2017-08-14T03:28:50.422Z,0
2017-08-14T03:29:51.818Z,0
2017-08-14T03:30:53.214Z,0
2017-08-14T03:31:54.610Z,0
2017-08-14T03:32:56.009Z,0
2017-08-14T03:33:57.411Z,0
2017-08-14T03:34:58.810Z,0
2017-08-14T03:36:00.205Z,0
2017-08-14T03:37:01.605Z,0
2017-08-14T03:38:03.003Z,0
2017-08-14T03:39:04.401Z,0
2017-08-14T03:40:05.802Z,0
2017-08-14T03:41:07.200Z,0
2017-08-14T03:42:08.605Z,0
2017-08-14T03:43:09.992Z,0
2017-08-14T03:44:11.393Z,0
2017-08-14T03:45:12.791Z,0
2017-08-14T03:46:14.188Z,0
2017-08-14T03:47:15.586Z,0
2017-08-14T03:48:16.985Z,0
2017-08-14T03:49:18.389Z,0
2017-08-14T03:50:19.783Z,0
2017-08-14T03:51:21.177Z,0
2017-08-14T03:52:22.574Z,0
2017-08-14T03:53:23.972Z,0
2017-08-14T03:54:25.370Z,0
2017-08-14T03:55:26.766Z,0
2017-08-14T03:56:28.171Z,0
2017-08-14T03:57:29.565Z,0
2017-08-14T03:58:30.965Z,0
2017-08-14T03:59:32.363Z,0
2017-08-14T04:00:33.760Z,0
2017-08-14T04:01:35.157Z,0
2017-08-14T04:02:36.552Z,0
2017-08-14T04:03:37.950Z,0
2017-08-14T04:04:39.350Z,0
2017-08-14T04:05:40.749Z,0
2017-08-14T04:06:42.148Z,0
2017-08-14T04:07:43.547Z,0
2017-08-14T04:08:44.951Z,0
2017-08-14T04:09:46.351Z,0
2017-08-14T04:10:47.750Z,0
2017-08-14T04:11:49.149Z,0
2017-08-14T04:12:50.543Z,0
2017-08-14T04:13:51.944Z,0
2017-08-14T04:14:53.344Z,0
2017-08-14T04:15:54.748Z,0
2017-08-14T04:16:56.146Z,0
2017-08-14T04:17:58.085Z,0
2017-08-14T04:18:59.489Z,0
2017-08-14T04:20:00.893Z,0
2017-08-14T04:21:02.289Z,0
2017-08-14T04:22:03.685Z,0
2017-08-14T04:23:05.083Z,0
2017-08-14T04:24:06.486Z,0
2017-08-14T04:25:07.904Z,0
2017-08-14T04:26:09.280Z,5
2017-08-14T04:27:10.680Z,5
2017-08-14T04:28:12.077Z,5
2017-08-14T04:29:13.479Z,5
2017-08-14T04:30:14.879Z,5
2017-08-14T04:31:16.276Z,5
2017-08-14T04:32:17.710Z,5
2017-08-14T04:33:19.119Z,5
2017-08-14T04:34:20.521Z,5
2017-08-14T04:35:21.917Z,5
2017-08-14T04:36:23.318Z,5
2017-08-14T04:37:24.719Z,5
2017-08-14T04:38:26.120Z,11
2017-08-14T04:39:27.522Z,11
2017-08-14T04:40:28.921Z,11
2017-08-14T04:41:30.324Z,11
2017-08-14T04:42:31.719Z,11
2017-08-14T04:43:33.122Z,11
2017-08-14T04:44:34.526Z,11
2017-08-14T04:45:35.924Z,11
2017-08-14T04:46:37.320Z,11
2017-08-14T04:47:38.719Z,11
2017-08-14T04:48:40.118Z,16
2017-08-14T04:49:41.520Z,16
2017-08-14T04:50:42.919Z,16
2017-08-14T04:51:44.322Z,16
2017-08-14T04:52:45.726Z,16
2017-08-14T04:53:47.126Z,16
2017-08-14T04:54:48.526Z,16
2017-08-14T04:55:49.927Z,16
2017-08-14T04:56:51.328Z,16
2017-08-14T04:57:52.727Z,22
2017-08-14T04:58:54.139Z,22
2017-08-14T04:59:55.536Z,22
2017-08-14T05:00:56.934Z,22
2017-08-14T05:01:58.361Z,22
2017-08-14T05:02:59.772Z,22
2017-08-14T05:04:01.174Z,22
2017-08-14T05:05:02.575Z,22
2017-08-14T05:06:03.975Z,22
2017-08-14T05:07:05.380Z,22
2017-08-14T05:08:06.777Z,22
2017-08-14T05:09:08.180Z,22
2017-08-14T05:10:09.577Z,22
2017-08-14T05:11:10.978Z,28
2017-08-14T05:12:12.382Z,28
2017-08-14T05:13:13.786Z,28
2017-08-14T05:14:15.191Z,28
2017-08-14T05:15:16.594Z,28
2017-08-14T05:16:17.991Z,28
2017-08-14T05:17:19.390Z,28
2017-08-14T05:18:20.787Z,28
2017-08-14T05:19:22.188Z,28
2017-08-14T05:20:23.594Z,28
2017-08-14T05:21:24.997Z,28
2017-08-14T05:22:26.395Z,28
2017-08-14T05:23:27.794Z,28
2017-08-14T05:24:29.199Z,28
2017-08-14T05:25:30.604Z,28
2017-08-14T05:26:32.005Z,28
2017-08-14T05:27:33.406Z,28
2017-08-14T05:28:34.810Z,33
2017-08-14T05:29:36.221Z,33
2017-08-14T05:30:37.619Z,33
2017-08-14T05:31:39.016Z,39
2017-08-14T05:32:40.418Z,39
2017-08-14T05:33:41.823Z,45
2017-08-14T05:34:43.226Z,45
2017-08-14T05:35:44.625Z,50
2017-08-14T05:36:46.029Z,50
2017-08-14T05:37:47.430Z,56
2017-08-14T05:38:48.828Z,56
2017-08-14T05:39:50.234Z,61
2017-08-14T05:40:51.638Z,61
2017-08-14T05:41:53.041Z,61
2017-08-14T05:42:54.448Z,61
2017-08-14T05:43:55.848Z,61
2017-08-14T05:44:57.251Z,61
2017-08-14T05:45:58.652Z,61
2017-08-14T05:47:00.053Z,67
2017-08-14T05:48:01.456Z,67
2017-08-14T05:49:02.862Z,67
2017-08-14T05:50:04.293Z,67
2017-08-14T05:51:05.722Z,67
2017-08-14T05:52:07.102Z,67
2017-08-14T05:53:08.509Z,67
2017-08-14T05:54:09.914Z,67
2017-08-14T05:55:11.317Z,67
2017-08-14T05:56:12.717Z,67
2017-08-14T05:57:14.123Z,67
2017-08-14T05:58:15.524Z,67
2017-08-14T05:59:16.923Z,61
2017-08-14T06:00:18.328Z,61
2017-08-14T06:01:19.729Z,61
2017-08-14T06:02:21.136Z,56
2017-08-14T06:03:22.532Z,56
2017-08-14T06:04:23.936Z,56
2017-08-14T06:05:25.345Z,56
2017-08-14T06:06:26.745Z,50
2017-08-14T06:07:28.148Z,50
2017-08-14T06:08:29.550Z,50
2017-08-14T06:09:30.960Z,50
2017-08-14T06:10:32.364Z,50
2017-08-14T06:11:33.961Z,50
2017-08-14T06:12:35.364Z,50
2017-08-14T06:13:36.796Z,50
2017-08-14T06:14:38.193Z,50
2017-08-14T06:15:39.614Z,50
2017-08-14T06:16:41.014Z,50
2017-08-14T06:17:42.421Z,50
2017-08-14T06:18:43.829Z,50
2017-08-14T06:19:45.227Z,50
2017-08-14T06:20:46.627Z,50
2017-08-14T06:21:48.027Z,56
2017-08-14T06:22:49.434Z,56
2017-08-14T06:23:50.840Z,56
2017-08-14T06:24:52.245Z,56
2017-08-14T06:25:53.646Z,56
2017-08-14T06:26:55.051Z,56
2017-08-14T06:27:56.451Z,56
2017-08-14T06:28:57.853Z,56
2017-08-14T06:29:59.258Z,56
2017-08-14T06:31:00.663Z,56
2017-08-14T06:32:02.069Z,56
2017-08-14T06:33:03.478Z,56
2017-08-14T06:34:04.879Z,56
2017-08-14T06:35:06.285Z,56
2017-08-14T06:36:07.688Z,56
2017-08-14T06:37:09.091Z,61
2017-08-14T06:38:10.517Z,61
2017-08-14T06:39:11.903Z,61
2017-08-14T06:40:13.308Z,61
2017-08-14T06:41:14.710Z,61
2017-08-14T06:42:16.940Z,61
2017-08-14T06:43:18.306Z,67
2017-08-14T06:44:19.710Z,67
2017-08-14T06:45:21.114Z,67
2017-08-14T06:46:22.518Z,67
2017-08-14T06:47:23.918Z,67
2017-08-14T06:48:25.321Z,67
2017-08-14T06:49:26.722Z,73
2017-08-14T06:50:28.123Z,67
2017-08-14T06:51:29.524Z,73
2017-08-14T06:52:30.929Z,73
2017-08-14T06:53:32.330Z,73
2017-08-14T06:54:33.734Z,73
2017-08-14T06:55:35.130Z,73
2017-08-14T06:56:36.530Z,78
2017-08-14T06:57:37.931Z,78
2017-08-14T06:58:39.338Z,84
2017-08-14T06:59:40.740Z,84
2017-08-14T07:00:42.143Z,84
2017-08-14T07:01:43.543Z,95
2017-08-14T07:02:44.946Z,95
2017-08-14T07:03:46.352Z,101
2017-08-14T07:04:47.757Z,101
2017-08-14T07:05:49.162Z,112
2017-08-14T07:06:50.565Z,118
2017-08-14T07:07:51.972Z,123
2017-08-14T07:08:53.376Z,129
2017-08-14T07:09:54.789Z,135
2017-08-14T07:10:56.186Z,129
2017-08-14T07:11:57.588Z,129
2017-08-14T07:12:58.990Z,118
2017-08-14T07:14:00.398Z,118
2017-08-14T07:15:01.803Z,112
2017-08-14T07:16:03.212Z,106
2017-08-14T07:17:05.348Z,95
2017-08-14T07:18:06.748Z,95
2017-08-14T07:19:08.154Z,90
2017-08-14T07:20:09.562Z,95
2017-08-14T07:21:11.541Z,90
2017-08-14T07:22:12.949Z,90
2017-08-14T07:23:14.390Z,106
2017-08-14T07:24:15.793Z,123
2017-08-14T07:25:17.195Z,135
2017-08-14T07:26:18.608Z,129
2017-08-14T07:27:20.014Z,129
2017-08-14T07:28:21.435Z,140
2017-08-14T07:29:22.843Z,140
2017-08-14T07:30:24.247Z,135
2017-08-14T07:31:25.655Z,118
2017-08-14T07:32:27.052Z,106
2017-08-14T07:33:29.429Z,95
2017-08-14T07:34:30.829Z,95
2017-08-14T07:35:32.237Z,118
2017-08-14T07:36:33.643Z,106
2017-08-14T07:37:35.053Z,101
2017-08-14T07:38:36.459Z,112
2017-08-14T07:39:37.860Z,106
2017-08-14T07:40:39.264Z,101
2017-08-14T07:41:40.669Z,101
2017-08-14T07:42:42.069Z,95
2017-08-14T07:43:43.477Z,95
2017-08-14T07:44:44.885Z,95
2017-08-14T07:45:46.288Z,106
2017-08-14T07:46:47.691Z,112
2017-08-14T07:47:49.095Z,123
2017-08-14T07:48:50.500Z,112
2017-08-14T07:49:51.909Z,112
2017-08-14T07:50:53.312Z,101
2017-08-14T07:51:54.718Z,101
2017-08-14T07:52:56.122Z,95
2017-08-14T07:53:57.522Z,95
2017-08-14T07:54:58.928Z,101
2017-08-14T07:56:00.330Z,101
2017-08-14T07:57:01.735Z,101
2017-08-14T07:58:03.141Z,101
2017-08-14T07:59:04.563Z,101
2017-08-14T08:00:05.970Z,101
2017-08-14T08:01:07.373Z,101
2017-08-14T08:02:08.777Z,106
2017-08-14T08:03:10.180Z,106
2017-08-14T08:04:11.584Z,106
2017-08-14T08:05:12.993Z,106
2017-08-14T08:06:14.397Z,112
2017-08-14T08:07:15.805Z,112
2017-08-14T08:08:17.206Z,112
2017-08-14T08:09:18.609Z,112
2017-08-14T08:10:20.014Z,112
2017-08-14T08:11:21.432Z,118
2017-08-14T08:12:22.831Z,118
2017-08-14T08:13:24.243Z,118
2017-08-14T08:14:25.645Z,123
2017-08-14T08:15:27.046Z,123
2017-08-14T08:16:28.446Z,129
2017-08-14T08:17:29.851Z,129
2017-08-14T08:18:31.255Z,129
2017-08-14T08:19:32.666Z,135
2017-08-14T08:20:34.075Z,140
2017-08-14T08:21:35.478Z,140
2017-08-14T08:22:36.881Z,146
2017-08-14T08:23:38.286Z,146
2017-08-14T08:24:39.689Z,157
2017-08-14T08:25:41.096Z,157
2017-08-14T08:26:42.499Z,140
2017-08-14T08:27:43.907Z,112
2017-08-14T08:28:45.312Z,146
2017-08-14T08:29:46.716Z,146
2017-08-14T08:30:48.122Z,151
2017-08-14T08:31:49.527Z,151
2017-08-14T08:32:50.933Z,146
2017-08-14T08:33:52.340Z,163
2017-08-14T08:34:53.750Z,180
2017-08-14T08:35:55.151Z,185
2017-08-14T08:36:56.553Z,191
2017-08-14T08:37:57.959Z,191
2017-08-14T08:38:59.368Z,174
2017-08-14T08:40:00.773Z,180
2017-08-14T08:41:02.177Z,185
2017-08-14T08:42:03.583Z,191
2017-08-14T08:43:04.984Z,168
2017-08-14T08:44:06.393Z,208
2017-08-14T08:45:07.838Z,253
2017-08-14T08:46:09.240Z,264
2017-08-14T08:47:10.645Z,241
2017-08-14T08:48:12.059Z,202
2017-08-14T08:49:13.464Z,180
2017-08-14T08:50:14.871Z,174
2017-08-14T08:51:16.276Z,219
2017-08-14T08:52:17.709Z,286
2017-08-14T08:53:19.117Z,236
2017-08-14T08:54:20.517Z,230
2017-08-14T08:55:21.929Z,225
2017-08-14T08:56:23.382Z,225
2017-08-14T08:57:24.789Z,219
2017-08-14T08:58:26.193Z,202
2017-08-14T08:59:27.596Z,168
2017-08-14T09:00:29.002Z,135
2017-08-14T09:01:30.411Z,225
2017-08-14T09:02:31.877Z,225
2017-08-14T09:03:33.283Z,219
2017-08-14T09:04:34.690Z,219
2017-08-14T09:05:36.094Z,225
2017-08-14T09:06:37.512Z,191
2017-08-14T09:07:38.919Z,208
2017-08-14T09:08:40.503Z,196
2017-08-14T09:09:41.910Z,196
2017-08-14T09:10:43.318Z,202
2017-08-14T09:11:44.724Z,208
2017-08-14T09:12:46.132Z,213
2017-08-14T09:13:47.537Z,213
2017-08-14T09:14:48.945Z,213
2017-08-14T09:15:50.387Z,213
2017-08-14T09:16:51.792Z,213
2017-08-14T09:17:53.198Z,213
2017-08-14T09:18:54.605Z,213
2017-08-14T09:19:56.007Z,213
2017-08-14T09:20:57.415Z,219
2017-08-14T09:21:58.825Z,219
2017-08-14T09:23:00.231Z,219
2017-08-14T09:24:01.643Z,219
2017-08-14T09:25:03.051Z,225
2017-08-14T09:26:04.598Z,230
2017-08-14T09:27:06.009Z,236
2017-08-14T09:28:07.533Z,253
2017-08-14T09:29:08.935Z,258
2017-08-14T09:30:10.344Z,275
2017-08-14T09:31:11.750Z,309
2017-08-14T09:32:13.160Z,320
2017-08-14T09:33:14.563Z,399
2017-08-14T09:34:16.024Z,433
2017-08-14T09:35:17.428Z,427
2017-08-14T09:36:18.836Z,331
2017-08-14T09:37:20.239Z,298
2017-08-14T09:38:21.649Z,253
2017-08-14T09:39:23.058Z,230
2017-08-14T09:40:24.462Z,281
2017-08-14T09:41:25.865Z,270
2017-08-14T09:42:27.271Z,264
2017-08-14T09:43:28.681Z,270
2017-08-14T09:44:30.084Z,275
2017-08-14T09:45:31.493Z,275
2017-08-14T09:46:32.899Z,281
2017-08-14T09:47:34.304Z,286
2017-08-14T09:48:35.715Z,292
2017-08-14T09:49:37.123Z,303
2017-08-14T09:50:38.526Z,309
2017-08-14T09:51:39.932Z,230
2017-08-14T09:52:41.365Z,315
2017-08-14T09:53:42.776Z,315
2017-08-14T09:54:44.178Z,309
2017-08-14T09:55:45.584Z,315
2017-08-14T09:56:46.990Z,326
2017-08-14T09:57:48.974Z,331
2017-08-14T09:58:50.363Z,337
2017-08-14T09:59:51.770Z,337
2017-08-14T10:00:53.178Z,343
2017-08-14T10:01:54.582Z,343
2017-08-14T10:02:55.984Z,343
2017-08-14T10:03:57.398Z,354
2017-08-14T10:04:58.803Z,202
2017-08-14T10:06:00.212Z,326
2017-08-14T10:07:01.621Z,382
2017-08-14T10:08:03.035Z,393
2017-08-14T10:09:04.444Z,399
2017-08-14T10:10:05.956Z,416
2017-08-14T10:11:07.368Z,433
2017-08-14T10:12:08.777Z,461
2017-08-14T10:13:10.186Z,478
2017-08-14T10:14:12.328Z,331
2017-08-14T10:15:13.737Z,523
2017-08-14T10:16:15.145Z,455
2017-08-14T10:17:16.680Z,427
2017-08-14T10:18:18.066Z,438
2017-08-14T10:19:19.471Z,444
2017-08-14T10:20:20.880Z,438
2017-08-14T10:21:22.289Z,433
2017-08-14T10:22:23.703Z,416
2017-08-14T10:23:25.111Z,421
2017-08-14T10:24:26.524Z,444
2017-08-14T10:25:27.933Z,466
2017-08-14T10:26:29.345Z,478
2017-08-14T10:27:30.820Z,489
2017-08-14T10:28:32.230Z,495
2017-08-14T10:29:33.645Z,500
2017-08-14T10:30:35.058Z,511
2017-08-14T10:31:36.466Z,528
2017-08-14T10:32:37.874Z,562
2017-08-14T10:33:39.284Z,568
2017-08-14T10:34:40.694Z,573
2017-08-14T10:35:42.105Z,568
2017-08-14T10:36:43.517Z,596
2017-08-14T10:37:44.926Z,630
2017-08-14T10:38:46.334Z,658
2017-08-14T10:39:47.777Z,697
2017-08-14T10:40:49.182Z,736
2017-08-14T10:41:50.592Z,781
2017-08-14T10:42:52.005Z,810
2017-08-14T10:43:53.414Z,810
2017-08-14T10:44:54.825Z,883
2017-08-14T10:45:56.235Z,1006
2017-08-14T10:46:57.645Z,1108
2017-08-14T10:47:59.089Z,585
2017-08-14T10:49:00.501Z,832
2017-08-14T10:50:01.912Z,1462
2017-08-14T10:51:03.382Z,1378
2017-08-14T10:52:04.874Z,1451
2017-08-14T10:53:06.343Z,1552
2017-08-14T10:54:07.733Z,1215
2017-08-14T10:55:09.178Z,1586
2017-08-14T10:56:10.590Z,1861
2017-08-14T10:57:12.062Z,1890
2017-08-14T10:58:13.482Z,1890
2017-08-14T10:59:14.894Z,1940
2017-08-14T11:00:16.333Z,1845
2017-08-14T11:01:17.753Z,1828
2017-08-14T11:02:19.169Z,1850
2017-08-14T11:03:20.585Z,1794
2017-08-14T11:04:22.005Z,1732
2017-08-14T11:05:23.420Z,1676
2017-08-14T11:06:24.833Z,1653
2017-08-14T11:07:26.279Z,1648
2017-08-14T11:08:27.697Z,1710
2017-08-14T11:09:29.113Z,1743
2017-08-14T11:10:30.538Z,1771
2017-08-14T11:11:31.948Z,1738
2017-08-14T11:12:33.369Z,1788
2017-08-14T11:13:34.872Z,1771
2017-08-14T11:14:36.256Z,1771
2017-08-14T11:15:37.681Z,1738
2017-08-14T11:16:39.097Z,1749
2017-08-14T11:17:40.515Z,1710
2017-08-14T11:18:41.936Z,1704
2017-08-14T11:19:43.366Z,1670
2017-08-14T11:20:44.781Z,1636
2017-08-14T11:21:46.199Z,1524
2017-08-14T11:22:47.617Z,1316
2017-08-14T11:23:49.031Z,1395
2017-08-14T11:24:50.447Z,1597
2017-08-14T11:25:51.867Z,1473
2017-08-14T11:26:53.313Z,1558
2017-08-14T11:27:54.727Z,1541
2017-08-14T11:28:56.231Z,1535
2017-08-14T11:29:57.645Z,1513
2017-08-14T11:30:59.105Z,1513
2017-08-14T11:32:00.528Z,1501
2017-08-14T11:33:02.177Z,1490
2017-08-14T11:34:03.593Z,1451
2017-08-14T11:35:05.032Z,1440
2017-08-14T11:36:06.471Z,1445
2017-08-14T11:37:07.889Z,1434
2017-08-14T11:38:09.299Z,1423
2017-08-14T11:39:10.823Z,1406
2017-08-14T11:40:12.246Z,1316
2017-08-14T11:41:13.669Z,1338
2017-08-14T11:42:15.121Z,1305
2017-08-14T11:43:16.556Z,241
2017-08-14T11:44:17.994Z,1080
2017-08-14T11:45:19.431Z,286
2017-08-14T11:46:20.859Z,281
2017-08-14T11:47:22.283Z,1321
2017-08-14T11:48:23.704Z,1226
2017-08-14T11:49:25.115Z,1288
2017-08-14T11:50:26.527Z,1254
2017-08-14T11:51:27.944Z,1220
2017-08-14T11:52:29.358Z,1119
2017-08-14T11:53:30.773Z,1141
2017-08-14T11:54:32.189Z,753
2017-08-14T11:55:33.604Z,326
2017-08-14T11:56:35.019Z,1074
2017-08-14T11:57:36.429Z,1158
2017-08-14T11:58:37.841Z,596
2017-08-14T11:59:39.258Z,303
2017-08-14T12:00:40.672Z,264
2017-08-14T12:01:42.086Z,450
2017-08-14T12:02:43.497Z,292
2017-08-14T12:03:44.913Z,275
2017-08-14T12:04:46.324Z,258
2017-08-14T12:05:47.733Z,286
2017-08-14T12:06:49.146Z,315
2017-08-14T12:07:50.559Z,939
2017-08-14T12:08:51.975Z,933
2017-08-14T12:09:53.389Z,956
2017-08-14T12:10:54.802Z,450
2017-08-14T12:11:56.211Z,371
2017-08-14T12:12:57.625Z,382
2017-08-14T12:13:59.036Z,337
2017-08-14T12:15:00.449Z,337
2017-08-14T12:16:01.862Z,787
2017-08-14T12:17:03.277Z,978
2017-08-14T12:18:04.688Z,995
2017-08-14T12:19:06.101Z,1035
2017-08-14T12:20:07.515Z,1181
2017-08-14T12:21:08.926Z,1181
2017-08-14T12:22:10.339Z,1158
2017-08-14T12:23:11.760Z,1175
2017-08-14T12:24:13.176Z,1181
2017-08-14T12:25:14.591Z,1209
2017-08-14T12:26:16.004Z,1203
2017-08-14T12:27:17.417Z,1215
2017-08-14T12:28:18.835Z,1209
2017-08-14T12:29:20.243Z,1158
2017-08-14T12:30:21.657Z,1091
2017-08-14T12:31:23.072Z,961
2017-08-14T12:32:24.482Z,978
2017-08-14T12:33:25.896Z,849
2017-08-14T12:34:27.378Z,579
2017-08-14T12:35:28.792Z,506
2017-08-14T12:36:30.209Z,365
2017-08-14T12:37:31.622Z,1006
2017-08-14T12:38:33.038Z,1057
2017-08-14T12:39:34.454Z,1006
2017-08-14T12:40:35.868Z,933
2017-08-14T12:41:37.278Z,641
2017-08-14T12:42:38.687Z,253
2017-08-14T12:43:40.104Z,1074
2017-08-14T12:44:41.519Z,500
2017-08-14T12:45:42.958Z,348
2017-08-14T12:46:44.365Z,286
2017-08-14T12:47:45.773Z,292
2017-08-14T12:48:47.187Z,1113
2017-08-14T12:49:48.609Z,1203
2017-08-14T12:50:50.018Z,1209
2017-08-14T12:51:51.435Z,1198
2017-08-14T12:52:52.933Z,1136
2017-08-14T12:53:54.352Z,1153
2017-08-14T12:54:55.764Z,736
2017-08-14T12:55:57.176Z,1181
2017-08-14T12:56:58.588Z,1096
2017-08-14T12:58:00.650Z,956
2017-08-14T12:59:02.063Z,337
2017-08-14T13:00:03.476Z,331
2017-08-14T13:01:04.887Z,331
2017-08-14T13:02:06.301Z,1215
2017-08-14T13:03:07.717Z,264
2017-08-14T13:04:09.131Z,225
2017-08-14T13:05:10.549Z,219
2017-08-14T13:06:11.958Z,230
2017-08-14T13:07:13.375Z,247
2017-08-14T13:08:14.802Z,1102
2017-08-14T13:09:16.212Z,1074
2017-08-14T13:10:17.612Z,348
2017-08-14T13:11:19.041Z,343
2017-08-14T13:12:20.449Z,360
2017-08-14T13:13:21.862Z,748
2017-08-14T13:14:23.278Z,1040
2017-08-14T13:15:24.690Z,382
2017-08-14T13:16:26.150Z,1085
2017-08-14T13:17:27.565Z,1147
2017-08-14T13:18:28.978Z,1170
2017-08-14T13:19:30.433Z,1186
2017-08-14T13:20:31.848Z,1170
2017-08-14T13:21:33.263Z,1164
2017-08-14T13:22:34.673Z,1147
2017-08-14T13:23:36.092Z,1130
2017-08-14T13:24:37.505Z,1136
2017-08-14T13:25:39.276Z,320
2017-08-14T13:26:40.819Z,309
2017-08-14T13:27:42.236Z,472
2017-08-14T13:28:43.665Z,258
2017-08-14T13:29:45.318Z,247
2017-08-14T13:30:46.719Z,253
2017-08-14T13:31:48.131Z,348
2017-08-14T13:32:49.541Z,691
2017-08-14T13:33:50.957Z,326
2017-08-14T13:34:52.373Z,1102
2017-08-14T13:35:53.786Z,354
2017-08-14T13:36:55.194Z,826
2017-08-14T13:37:56.606Z,1035
2017-08-14T13:38:58.019Z,1040
2017-08-14T13:39:59.440Z,990
2017-08-14T13:41:00.847Z,961
2017-08-14T13:42:02.263Z,950
2017-08-14T13:43:03.679Z,945
2017-08-14T13:44:05.092Z,933
2017-08-14T13:45:06.501Z,939
2017-08-14T13:46:07.916Z,933
2017-08-14T13:47:09.330Z,928
2017-08-14T13:48:10.755Z,916
2017-08-14T13:49:12.158Z,911
2017-08-14T13:50:13.570Z,894
2017-08-14T13:51:14.982Z,900
2017-08-14T13:52:16.392Z,939
2017-08-14T13:53:17.803Z,680
2017-08-14T13:54:19.215Z,787
2017-08-14T13:55:20.628Z,900
2017-08-14T13:56:22.046Z,286
2017-08-14T13:57:23.461Z,900
2017-08-14T13:58:24.879Z,843
2017-08-14T13:59:26.291Z,883
2017-08-14T14:00:27.706Z,860
2017-08-14T14:01:29.119Z,849
2017-08-14T14:02:30.528Z,838
2017-08-14T14:03:31.942Z,489
2017-08-14T14:04:33.357Z,708
2017-08-14T14:05:34.769Z,658
2017-08-14T14:06:36.182Z,832
2017-08-14T14:07:37.594Z,815
2017-08-14T14:08:39.008Z,798
2017-08-14T14:09:40.422Z,781
2017-08-14T14:10:41.834Z,781
2017-08-14T14:11:43.249Z,798
2017-08-14T14:12:44.662Z,793
2017-08-14T14:13:46.075Z,798
2017-08-14T14:14:47.488Z,821
2017-08-14T14:15:48.901Z,815
2017-08-14T14:16:50.316Z,770
2017-08-14T14:17:51.728Z,798
2017-08-14T14:18:53.146Z,680
2017-08-14T14:19:54.559Z,765
2017-08-14T14:20:55.971Z,697
2017-08-14T14:21:57.385Z,736
2017-08-14T14:22:58.797Z,714
2017-08-14T14:24:00.212Z,736
2017-08-14T14:25:02.254Z,736
2017-08-14T14:26:03.671Z,742